Time;durP1;ratioP1;P1;durP2;ratioP2;P2;SDS_P1;SDS_P2;PMS_P1;PMS_P2;Temp;Humidity;BMP_temperature;BMP_pressure;BME280_temperature;BME280_humidity;BME280_pressure;Samples;Min_cycle;Max_cycle;Signal;HPM_P1;HPM_P2
2021/11/01 00:00:48;;;;;;;10.43;9.53;;;13.50;99.90;;;;;;6172296;23;20419;-93
2021/11/01 00:03:16;;;;;;;10.00;9.07;;;13.50;99.90;;;;;;6169226;23;20542;-92
2021/11/01 00:05:44;;;;;;;10.20;9.30;;;13.50;99.90;;;;;;6170127;23;20395;-92
2021/11/01 00:08:12;;;;;;;11.33;10.13;;;13.50;99.90;;;;;;6161359;23;20453;-93
2021/11/01 00:10:39;;;;;;;10.90;8.93;;;13.60;99.90;;;;;;6161232;23;20893;-93
2021/11/01 00:13:06;;;;;;;10.60;8.70;;;13.60;99.90;;;;;;6162091;23;20433;-92
2021/11/01 00:15:33;;;;;;;13.83;10.60;;;13.50;99.90;;;;;;6161497;23;20399;-93
2021/11/01 00:18:00;;;;;;;10.43;9.20;;;13.40;99.90;;;;;;6181235;23;20421;-93
2021/11/01 00:20:27;;;;;;;9.53;8.63;;;13.40;99.90;;;;;;6175877;23;21061;-93
2021/11/01 00:22:54;;;;;;;9.77;8.87;;;13.50;99.90;;;;;;6159525;23;20444;-92
2021/11/01 00:25:22;;;;;;;10.90;9.80;;;13.60;99.90;;;;;;6160346;23;20437;-92
2021/11/01 00:27:50;;;;;;;10.33;8.47;;;13.50;99.90;;;;;;6158718;23;20427;-91
2021/11/01 00:30:18;;;;;;;10.60;8.87;;;13.50;99.90;;;;;;6173231;23;20417;-92
2021/11/01 00:32:47;;;;;;;9.30;8.40;;;13.60;99.90;;;;;;6163965;23;20434;-93
2021/11/01 00:35:15;;;;;;;10.10;9.10;;;13.50;99.90;;;;;;6163211;23;20419;-92
2021/11/01 00:37:42;;;;;;;10.00;9.00;;;13.60;99.90;;;;;;6160098;23;20436;-91
2021/11/01 00:40:10;;;;;;;9.80;8.80;;;13.50;99.90;;;;;;6158394;23;20412;-92
2021/11/01 00:42:38;;;;;;;9.73;8.93;;;13.50;99.90;;;;;;6158577;23;20756;-91
2021/11/01 00:45:06;;;;;;;9.20;8.13;;;13.50;99.90;;;;;;6159320;23;20450;-91
2021/11/01 00:47:33;;;;;;;10.40;8.47;;;13.60;99.90;;;;;;6174409;23;20395;-92
2021/11/01 00:49:59;;;;;;;8.80;7.90;;;13.60;99.90;;;;;;6183940;23;20390;-92
2021/11/01 00:52:28;;;;;;;9.90;8.90;;;13.50;99.90;;;;;;6167635;23;20431;-92
2021/11/01 00:54:59;;;;;;;9.23;8.33;;;13.60;99.90;;;;;;6160619;23;20410;-91
2021/11/01 00:57:27;;;;;;;10.33;8.73;;;13.70;99.90;;;;;;6177722;23;20435;-91
2021/11/01 00:59:57;;;;;;;10.60;8.47;;;13.60;99.90;;;;;;6179919;23;20727;-92
2021/11/01 01:02:24;;;;;;;10.37;9.37;;;13.50;99.90;;;;;;6164307;23;20432;-91
2021/11/01 01:04:51;;;;;;;9.70;8.80;;;13.60;99.90;;;;;;6160954;23;20564;-92
2021/11/01 01:07:18;;;;;;;9.50;8.60;;;13.50;99.90;;;;;;6158624;23;20475;-92
2021/11/01 01:09:45;;;;;;;11.40;10.30;;;13.40;99.90;;;;;;6160684;23;20409;-91
2021/11/01 01:12:12;;;;;;;9.90;8.40;;;13.30;99.90;;;;;;6160634;23;20494;-91
2021/11/01 01:14:44;;;;;;;9.97;9.00;;;13.40;99.90;;;;;;6160503;23;20416;-92
2021/11/01 01:17:12;;;;;;;9.03;8.00;;;13.40;99.90;;;;;;6158893;23;20401;-91
2021/11/01 01:19:47;;;;;;;10.20;8.13;;;13.50;99.90;;;;;;6162426;23;20413;-91
2021/11/01 01:22:21;;;;;;;8.30;7.40;;;13.40;99.90;;;;;;6170546;23;20433;-92
2021/11/01 01:24:54;;;;;;;7.73;7.03;;;13.40;99.90;;;;;;6166124;23;20440;-91
2021/11/01 01:27:20;;;;;;;8.10;7.30;;;13.40;99.90;;;;;;6158389;23;20435;-91
2021/11/01 01:29:50;;;;;;;8.63;7.73;;;13.60;99.90;;;;;;6157906;23;20399;-92
2021/11/01 01:32:18;;;;;;;8.73;7.47;;;13.60;99.90;;;;;;6167863;23;20429;-92
2021/11/01 01:34:45;;;;;;;8.10;7.40;;;13.60;99.90;;;;;;6174864;23;20409;-92
2021/11/01 01:37:13;;;;;;;8.30;7.60;;;13.60;99.90;;;;;;6158551;23;20393;-91
2021/11/01 01:39:39;;;;;;;10.37;7.90;;;13.70;99.90;;;;;;6164782;23;20476;-92
2021/11/01 01:42:06;;;;;;;8.90;7.37;;;13.70;99.90;;;;;;6179948;23;20458;-91
2021/11/01 01:44:33;;;;;;;8.33;7.40;;;13.80;99.90;;;;;;6181221;23;20431;-92
2021/11/01 01:47:01;;;;;;;7.83;7.23;;;13.90;99.90;;;;;;6176414;23;20415;-92
2021/11/01 01:49:29;;;;;;;7.23;6.63;;;13.90;99.90;;;;;;6166411;23;20414;-92
2021/11/01 01:51:56;;;;;;;7.00;6.30;;;14.00;99.90;;;;;;6166449;23;20720;-92
2021/11/01 01:54:22;;;;;;;5.50;3.70;;;14.00;99.90;;;;;;6166628;23;20414;-92
2021/11/01 01:56:49;;;;;;;4.40;2.97;;;14.20;99.90;;;;;;6166654;23;20414;-92
2021/11/01 01:59:18;;;;;;;2.33;1.83;;;14.40;99.90;;;;;;6168516;23;20490;-91
2021/11/01 02:01:46;;;;;;;2.27;2.00;;;14.60;99.90;;;;;;6163050;23;20462;-93
2021/11/01 02:04:15;;;;;;;5.00;1.77;;;14.70;99.90;;;;;;6161347;23;20414;-92
2021/11/01 02:07:07;;;;;;;2.30;1.73;;;14.70;99.90;;;;;;6156479;23;20458;-87
2021/11/01 02:09:40;;;;;;;2.50;1.33;;;14.70;99.90;;;;;;6162491;23;20395;-87
2021/11/01 02:12:13;;;;;;;2.10;1.63;;;14.70;99.90;;;;;;6167076;23;20399;-88
2021/11/01 02:14:47;;;;;;;3.13;1.63;;;14.70;99.90;;;;;;6164996;23;20866;-89
2021/11/01 02:17:16;;;;;;;1.20;1.00;;;14.70;99.90;;;;;;6163469;23;20434;-89
2021/11/01 02:19:48;;;;;;;1.20;1.00;;;14.70;99.90;;;;;;6162555;23;20464;-90
2021/11/01 02:22:19;;;;;;;5.07;0.90;;;14.60;99.90;;;;;;6180772;23;20381;-88
2021/11/01 02:24:56;;;;;;;1.93;0.80;;;14.60;99.90;;;;;;6176789;23;20459;-88
2021/11/01 02:27:27;;;;;;;2.63;1.33;;;14.50;99.90;;;;;;6165966;23;20425;-90
2021/11/01 02:29:54;;;;;;;7.93;1.10;;;14.50;99.90;;;;;;6162110;23;20471;-87
2021/11/01 02:32:22;;;;;;;1.57;0.77;;;14.40;99.90;;;;;;6160728;23;20821;-89
2021/11/01 02:34:50;;;;;;;2.40;1.97;;;14.40;99.90;;;;;;6162526;23;20894;-90
2021/11/01 02:37:17;;;;;;;3.00;1.00;;;14.40;99.90;;;;;;6161519;23;20431;-90
2021/11/01 02:39:52;;;;;;;4.80;1.67;;;14.30;99.90;;;;;;6162867;23;20411;-89
2021/11/01 02:42:21;;;;;;;2.07;1.10;;;14.30;99.90;;;;;;6162927;23;20442;-89
2021/11/01 02:44:59;;;;;;;1.60;1.20;;;14.10;99.90;;;;;;6162846;23;20439;-89
2021/11/01 02:47:29;;;;;;;2.57;1.20;;;13.90;99.90;;;;;;6161169;23;20415;-89
2021/11/01 02:50:01;;;;;;;2.83;1.07;;;13.80;99.90;;;;;;6162282;23;20698;-88
2021/11/01 02:52:29;;;;;;;2.40;1.00;;;13.70;99.90;;;;;;6161608;23;20470;-89
2021/11/01 02:54:56;;;;;;;3.73;1.53;;;13.50;99.90;;;;;;6164463;23;20401;-90
2021/11/01 02:57:23;;;;;;;6.10;1.53;;;13.50;99.90;;;;;;6180672;23;20403;-89
2021/11/01 02:59:50;;;;;;;4.13;1.30;;;13.50;99.90;;;;;;6184376;23;20461;-88
2021/11/01 03:02:19;;;;;;;1.73;0.83;;;13.50;99.90;;;;;;6184108;23;20412;-89
2021/11/01 03:04:47;;;;;;;4.67;1.30;;;13.40;99.90;;;;;;6182985;23;20458;-87
2021/11/01 03:07:15;;;;;;;5.03;1.60;;;13.40;99.90;;;;;;6169246;23;20490;-89
2021/11/01 03:09:45;;;;;;;2.67;0.80;;;13.40;99.90;;;;;;6178212;23;20406;-88
2021/11/01 03:12:14;;;;;;;1.93;1.23;;;13.40;99.90;;;;;;6184118;23;20432;-89
2021/11/01 03:14:48;;;;;;;2.47;1.23;;;13.40;99.90;;;;;;6184040;23;20515;-89
2021/11/01 03:17:18;;;;;;;3.87;1.20;;;13.40;99.90;;;;;;6181290;23;20409;-89
2021/11/01 03:19:53;;;;;;;3.33;1.10;;;13.40;99.90;;;;;;6182650;23;20388;-89
2021/11/01 03:22:20;;;;;;;5.50;1.53;;;13.40;99.90;;;;;;6184467;23;20394;-88
2021/11/01 03:24:56;;;;;;;2.43;0.90;;;13.40;99.90;;;;;;6181971;23;20449;-89
2021/11/01 03:27:25;;;;;;;3.17;1.43;;;13.30;99.90;;;;;;6138310;23;20520;-89
2021/11/01 03:29:52;;;;;;;3.50;1.10;;;13.20;99.90;;;;;;6168396;23;20415;-88
2021/11/01 03:32:20;;;;;;;4.27;1.20;;;13.10;99.90;;;;;;6162266;23;20409;-88
2021/11/01 03:34:48;;;;;;;1.60;1.07;;;13.00;99.90;;;;;;6165103;23;20405;-88
2021/11/01 03:37:17;;;;;;;3.03;1.23;;;13.00;99.90;;;;;;6172384;23;20471;-88
2021/11/01 03:39:46;;;;;;;4.37;1.23;;;12.90;99.90;;;;;;6162315;23;20497;-88
2021/11/01 03:42:14;;;;;;;7.50;2.57;;;12.80;99.90;;;;;;6169322;23;20434;-88
2021/11/01 03:44:45;;;;;;;3.07;1.77;;;12.70;99.90;;;;;;6164478;23;20408;-87
2021/11/01 03:47:13;;;;;;;3.30;1.07;;;12.60;99.90;;;;;;6159276;23;20447;-88
2021/11/01 03:49:49;;;;;;;2.70;1.60;;;12.50;99.90;;;;;;6158972;23;20434;-88
2021/11/01 03:52:22;;;;;;;5.10;1.60;;;12.40;99.90;;;;;;6162178;23;20394;-88
2021/11/01 03:54:51;;;;;;;2.77;1.13;;;12.40;99.90;;;;;;6156997;23;20910;-87
2021/11/01 03:57:18;;;;;;;3.43;1.23;;;12.30;99.90;;;;;;6156260;23;20492;-88
2021/11/01 03:59:45;;;;;;;3.97;1.73;;;12.30;99.90;;;;;;6156331;23;20411;-88
2021/11/01 04:02:14;;;;;;;3.03;1.27;;;12.20;99.90;;;;;;6156211;23;20415;-88
2021/11/01 04:04:43;;;;;;;6.63;1.10;;;12.20;99.90;;;;;;6155643;23;20391;-88
2021/11/01 04:07:10;;;;;;;6.70;1.30;;;12.20;99.90;;;;;;6167983;23;20420;-88
2021/11/01 04:09:39;;;;;;;4.63;1.40;;;12.20;99.90;;;;;;6183257;23;20426;-88
2021/11/01 04:12:06;;;;;;;2.73;1.30;;;12.20;99.90;;;;;;6158883;23;20768;-88
2021/11/01 04:14:39;;;;;;;5.50;1.30;;;12.20;99.90;;;;;;6182311;23;20472;-88
2021/11/01 04:17:11;;;;;;;6.43;1.73;;;12.10;99.90;;;;;;6179037;23;20456;-88
2021/11/01 04:19:55;;;;;;;4.17;1.77;;;12.10;99.90;;;;;;6176219;23;20439;-88
2021/11/01 04:22:21;;;;;;;3.77;1.17;;;12.10;99.90;;;;;;6172405;23;20475;-88
2021/11/01 04:24:50;;;;;;;6.30;1.80;;;12.00;99.90;;;;;;6159763;23;20474;-88
2021/11/01 04:27:18;;;;;;;3.30;1.50;;;11.90;99.90;;;;;;6158683;23;20431;-88
2021/11/01 04:29:44;;;;;;;3.63;1.50;;;11.90;99.90;;;;;;6163588;23;20442;-88
2021/11/01 04:32:18;;;;;;;7.13;2.33;;;11.80;99.90;;;;;;6163488;23;20432;-88
2021/11/01 04:34:48;;;;;;;7.40;2.10;;;11.80;99.90;;;;;;6157784;23;20399;-88
2021/11/01 04:37:15;;;;;;;9.63;2.27;;;11.70;99.90;;;;;;6166688;23;20506;-88
2021/11/01 04:39:54;;;;;;;7.23;1.90;;;11.70;99.90;;;;;;6174755;23;20409;-88
2021/11/01 04:42:50;;;;;;;5.73;1.80;;;11.80;99.90;;;;;;6158888;23;20870;-89
2021/11/01 04:53:36;;;;;;;4.80;1.40;;;11.70;99.90;;;;;;6155926;23;20414;-89
2021/11/01 04:56:03;;;;;;;6.03;1.90;;;11.80;99.90;;;;;;6155499;23;20485;-88
2021/11/01 04:58:32;;;;;;;3.20;1.40;;;11.90;99.90;;;;;;6155167;23;20411;-88
2021/11/01 05:00:59;;;;;;;4.63;1.50;;;11.80;99.90;;;;;;6155675;23;20449;-89
2021/11/01 05:03:37;;;;;;;2.20;1.67;;;11.80;99.90;;;;;;6161053;23;20481;-89
2021/11/01 05:06:05;;;;;;;2.77;1.40;;;11.70;99.90;;;;;;6168633;23;20447;-89
2021/11/01 05:08:41;;;;;;;7.07;1.77;;;11.80;99.90;;;;;;6156515;23;20408;-89
2021/11/01 05:11:15;;;;;;;1.87;1.43;;;11.80;99.90;;;;;;6155893;23;20418;-89
2021/11/01 05:13:45;;;;;;;4.07;1.63;;;11.80;99.90;;;;;;6158964;23;20398;-90
2021/11/01 05:16:16;;;;;;;3.13;1.47;;;11.80;99.90;;;;;;6181376;23;20506;-89
2021/11/01 05:18:48;;;;;;;4.83;1.70;;;11.80;99.90;;;;;;6165323;23;20414;-89
2021/11/01 05:21:24;;;;;;;10.83;2.10;;;11.80;99.90;;;;;;6176509;23;20392;-88
2021/11/01 05:23:55;;;;;;;4.60;1.40;;;11.70;99.90;;;;;;6156496;23;20438;-87
2021/11/01 05:26:29;;;;;;;3.33;1.43;;;11.70;99.90;;;;;;6160989;23;20440;-89
2021/11/01 05:29:01;;;;;;;2.93;1.80;;;11.70;99.90;;;;;;6182253;23;20383;-89
2021/11/01 05:31:29;;;;;;;3.50;1.70;;;11.70;99.90;;;;;;6160685;23;20514;-88
2021/11/01 05:34:02;;;;;;;4.17;1.77;;;11.70;99.90;;;;;;6157278;23;20423;-89
2021/11/01 05:36:29;;;;;;;3.97;1.63;;;11.70;99.90;;;;;;6158678;23;20458;-89
2021/11/01 05:38:56;;;;;;;4.20;1.80;;;11.60;99.90;;;;;;6157379;23;20924;-89
2021/11/01 05:41:23;;;;;;;6.87;1.93;;;11.60;99.90;;;;;;6173914;23;20431;-89
2021/11/01 05:43:50;;;;;;;6.00;1.80;;;11.50;99.90;;;;;;6175047;23;20474;-88
2021/11/01 05:46:18;;;;;;;3.73;1.53;;;11.50;99.90;;;;;;6163303;23;20449;-88
2021/11/01 05:48:50;;;;;;;3.87;1.67;;;11.50;99.90;;;;;;6167275;23;20406;-89
2021/11/01 05:51:19;;;;;;;6.00;1.90;;;11.60;99.90;;;;;;6168707;23;20789;-88
2021/11/01 05:53:50;;;;;;;3.63;2.10;;;11.60;99.90;;;;;;6183114;23;20419;-89
2021/11/01 05:56:29;;;;;;;4.40;1.60;;;11.50;99.90;;;;;;6164969;23;20770;-88
2021/11/01 05:59:10;;;;;;;5.60;1.73;;;11.50;99.90;;;;;;6155953;23;20379;-89
2021/11/01 06:04:34;;;;;;;5.87;2.20;;;11.50;99.90;;;;;;6117761;23;20477;-88
2021/11/01 06:07:07;;;;;;;5.70;2.50;;;11.50;99.90;;;;;;6155083;23;20469;-88
2021/11/01 06:09:49;;;;;;;5.90;2.07;;;11.50;99.90;;;;;;6170585;23;20462;-89
2021/11/01 06:15:00;;;;;;;8.50;2.70;;;11.60;99.90;;;;;;6156140;23;20425;-89
2021/11/01 06:17:31;;;;;;;6.80;2.37;;;11.60;99.90;;;;;;6155279;23;20487;-88
2021/11/01 06:19:57;;;;;;;3.27;2.30;;;11.60;99.90;;;;;;6155964;23;20395;-89
2021/11/01 06:22:24;;;;;;;5.20;2.90;;;11.60;99.90;;;;;;6156499;23;20526;-88
2021/11/01 06:24:52;;;;;;;3.47;2.63;;;11.60;99.90;;;;;;6165269;23;20801;-88
2021/11/01 06:27:21;;;;;;;6.73;2.87;;;11.60;99.90;;;;;;6159747;23;20784;-89
2021/11/01 06:29:59;;;;;;;4.10;2.73;;;11.60;99.90;;;;;;6177850;23;20403;-90
2021/11/01 06:32:34;;;;;;;6.10;2.87;;;11.60;99.90;;;;;;6184718;23;20387;-89
2021/11/01 06:43:16;;;;;;;8.63;3.10;;;11.50;99.90;;;;;;6114416;23;20901;-89
2021/11/01 06:45:57;;;;;;;3.90;2.60;;;11.60;99.90;;;;;;6159503;23;20485;-88
2021/11/01 06:51:27;;;;;;;8.80;3.53;;;11.50;99.90;;;;;;6157502;23;20435;-88
2021/11/01 06:57:11;;;;;;;8.83;2.97;;;11.50;99.90;;;;;;6134023;23;20423;-87
2021/11/01 07:16:25;;;;;;;3.53;0.70;;;11.20;99.90;;;;;;6179509;23;20444;-89
2021/11/01 07:18:57;;;;;;;4.90;1.00;;;11.10;99.90;;;;;;6165567;23;20398;-89
2021/11/01 07:30:13;;;;;;;2.23;0.70;;;10.90;99.90;;;;;;6123087;23;20394;-89
2021/11/01 08:36:06;;;;;;;2.20;0.97;;;10.90;99.90;;;;;;6160413;23;20505;-88
2021/11/01 08:41:57;;;;;;;2.40;1.13;;;10.90;99.90;;;;;;6146293;23;20429;-88
2021/11/01 08:47:27;;;;;;;2.80;1.47;;;10.90;99.90;;;;;;6184038;23;20438;-87
2021/11/01 09:02:03;;;;;;;6.10;1.53;;;11.00;99.90;;;;;;6169032;23;20397;-88
2021/11/01 09:21:27;;;;;;;2.47;1.17;;;11.10;99.90;;;;;;6178611;23;20455;-90
2021/11/01 09:24:15;;;;;;;2.20;1.17;;;11.20;99.90;;;;;;6182093;23;20423;-88
2021/11/01 09:26:43;;;;;;;2.83;0.90;;;11.10;99.90;;;;;;6172966;23;20465;-91
2021/11/01 09:29:17;;;;;;;1.73;1.17;;;11.20;99.90;;;;;;6181119;23;20399;-90
2021/11/01 09:37:28;;;;;;;1.30;1.20;;;11.20;99.90;;;;;;6168308;23;20383;-90
2021/11/01 09:42:52;;;;;;;2.60;0.90;;;11.20;99.90;;;;;;6164435;23;20444;-90
2021/11/01 09:45:24;;;;;;;2.93;0.80;;;11.30;99.90;;;;;;6169111;23;20430;-91
2021/11/01 09:47:53;;;;;;;1.40;0.83;;;11.30;99.90;;;;;;6167536;23;20497;-91
2021/11/01 09:50:24;;;;;;;1.33;0.83;;;11.20;99.90;;;;;;6178770;23;20393;-89
2021/11/01 09:52:58;;;;;;;2.27;1.17;;;11.20;99.90;;;;;;6175954;23;20438;-90
2021/11/01 09:55:46;;;;;;;2.33;1.00;;;11.30;99.90;;;;;;6162985;23;20462;-90
2021/11/01 10:00:57;;;;;;;1.67;1.20;;;11.50;99.90;;;;;;6158967;23;20377;-90
2021/11/01 10:03:35;;;;;;;1.60;1.10;;;11.50;99.90;;;;;;6168985;23;20479;-90
2021/11/01 10:06:06;;;;;;;2.10;1.63;;;11.60;99.90;;;;;;6180918;23;20383;-90
2021/11/01 10:08:33;;;;;;;1.77;1.10;;;11.60;99.90;;;;;;6175517;23;20487;-89
2021/11/01 10:11:01;;;;;;;3.47;1.90;;;11.60;99.90;;;;;;6180116;23;20419;-89
2021/11/01 10:13:28;;;;;;;2.00;1.10;;;11.50;99.90;;;;;;6161272;23;20447;-91
2021/11/01 10:18:47;;;;;;;1.43;0.70;;;11.50;99.90;;;;;;6165737;23;20395;-91
2021/11/01 10:21:18;;;;;;;1.50;0.90;;;11.50;99.90;;;;;;6182635;23;20427;-90
2021/11/01 10:23:50;;;;;;;1.27;0.93;;;11.40;99.90;;;;;;6168402;23;20427;-91
2021/11/01 10:26:20;;;;;;;1.20;0.90;;;11.50;99.90;;;;;;6181596;23;20434;-89
2021/11/01 10:28:48;;;;;;;1.40;0.70;;;11.60;99.90;;;;;;6180397;23;20410;-90
2021/11/01 10:31:18;;;;;;;1.23;0.90;;;11.60;99.90;;;;;;6162365;23;20404;-89
2021/11/01 10:33:46;;;;;;;2.17;1.10;;;11.70;99.90;;;;;;6165234;23;20414;-91
2021/11/01 10:36:25;;;;;;;1.37;0.63;;;11.70;99.90;;;;;;6160224;23;20395;-91
2021/11/01 10:38:56;;;;;;;1.47;1.03;;;11.80;99.90;;;;;;6159027;23;20405;-92
2021/11/01 10:41:28;;;;;;;1.20;0.77;;;11.80;99.90;;;;;;6158191;23;20391;-90
2021/11/01 10:44:06;;;;;;;1.47;1.00;;;11.80;99.90;;;;;;6161093;23;20505;-90
2021/11/01 11:11:39;;;;;;;0.87;0.67;;;12.00;99.90;;;;;;6159268;23;20425;-90
2021/11/01 11:14:17;;;;;;;1.77;0.90;;;12.00;99.90;;;;;;6162100;23;20486;-91
2021/11/01 11:19:51;;;;;;;1.23;0.90;;;12.10;99.90;;;;;;6160391;23;20438;-91
2021/11/01 11:28:17;;;;;;;1.30;1.20;;;12.20;99.90;;;;;;6091468;23;20834;-91
2021/11/01 11:33:54;;;;;;;2.73;1.40;;;12.30;99.90;;;;;;6162417;23;20414;-82
2021/11/01 11:47:46;;;;;;;1.63;1.53;;;12.70;99.90;;;;;;6178854;23;20505;-90
2021/11/01 11:50:20;;;;;;;2.57;1.50;;;12.70;99.90;;;;;;6162949;23;20399;-91
2021/11/01 11:52:48;;;;;;;2.20;1.03;;;12.60;99.90;;;;;;6158960;23;20439;-91
2021/11/01 11:55:24;;;;;;;3.07;1.60;;;12.60;99.90;;;;;;6157892;23;20414;-92
2021/11/01 11:57:58;;;;;;;2.23;1.10;;;12.60;99.90;;;;;;6158175;23;20414;-91
2021/11/01 12:00:28;;;;;;;2.00;1.17;;;12.60;99.90;;;;;;6159567;23;20407;-90
2021/11/01 12:02:55;;;;;;;2.10;1.53;;;12.60;99.90;;;;;;6176842;23;20422;-89
2021/11/01 12:05:34;;;;;;;3.13;1.57;;;12.50;99.90;;;;;;6182526;23;20445;-88
2021/11/01 12:08:08;;;;;;;2.00;1.60;;;12.50;99.90;;;;;;6181799;23;20435;-91
2021/11/01 12:19:12;;;;;;;1.97;1.53;;;12.60;99.90;;;;;;6165279;23;20382;-90
2021/11/01 12:21:41;;;;;;;1.93;1.57;;;12.60;99.90;;;;;;6166784;23;20730;-92
2021/11/01 12:24:09;;;;;;;2.60;2.20;;;12.60;99.90;;;;;;6165611;23;20708;-91
2021/11/01 12:26:39;;;;;;;3.90;1.63;;;12.60;99.90;;;;;;6166052;23;20443;-92
2021/11/01 12:29:11;;;;;;;2.00;1.60;;;12.60;99.90;;;;;;6168134;23;20421;-91
2021/11/01 12:31:39;;;;;;;1.80;1.50;;;12.60;99.90;;;;;;6171938;23;20448;-90
2021/11/01 12:34:12;;;;;;;2.97;1.60;;;12.60;99.90;;;;;;6181849;23;20419;-90
2021/11/01 12:36:54;;;;;;;2.90;2.10;;;12.60;99.90;;;;;;6166693;23;20404;-91
2021/11/01 12:39:28;;;;;;;4.60;2.23;;;12.60;99.90;;;;;;6166243;23;20442;-91
2021/11/01 12:42:11;;;;;;;2.20;2.00;;;12.60;99.90;;;;;;6173658;23;20408;-91
2021/11/01 12:58:45;;;;;;;2.70;2.13;;;12.50;99.90;;;;;;6168487;23;20483;-92
2021/11/01 13:01:16;;;;;;;3.90;3.20;;;12.60;99.90;;;;;;6167198;23;20410;-93
2021/11/01 13:03:53;;;;;;;4.50;2.90;;;12.60;99.90;;;;;;6167040;23;20415;-91
2021/11/01 13:06:33;;;;;;;2.90;2.60;;;12.60;99.90;;;;;;6168032;23;20397;-91
2021/11/01 13:09:06;;;;;;;4.67;2.90;;;12.60;99.90;;;;;;6161601;23;20396;-91
2021/11/01 13:11:44;;;;;;;2.60;2.40;;;12.60;99.90;;;;;;6165136;23;20779;-91
2021/11/01 13:14:39;;;;;;;3.60;3.30;;;12.60;99.90;;;;;;6169581;23;20431;-92
2021/11/01 13:19:54;;;;;;;3.13;2.70;;;12.60;99.90;;;;;;6165417;23;20399;-92
2021/11/01 13:22:25;;;;;;;4.60;2.63;;;12.60;99.90;;;;;;6164406;23;20438;-91
2021/11/01 13:24:59;;;;;;;2.93;2.63;;;12.60;99.90;;;;;;6164576;23;20415;-91
2021/11/01 13:27:38;;;;;;;3.40;3.07;;;12.60;99.90;;;;;;6163085;23;20491;-92
2021/11/01 13:36:06;;;;;;;3.47;2.40;;;12.60;99.90;;;;;;6160028;23;20413;-92
2021/11/01 13:38:33;;;;;;;3.50;3.20;;;12.60;99.90;;;;;;6170057;23;20384;-91
2021/11/01 13:41:01;;;;;;;3.00;2.43;;;12.60;99.90;;;;;;6184677;23;20385;-92
2021/11/01 13:43:29;;;;;;;3.50;2.23;;;12.60;99.90;;;;;;6178258;23;20427;-91
2021/11/01 13:45:59;;;;;;;3.10;2.60;;;12.60;99.90;;;;;;6165161;23;20412;-91
2021/11/01 13:48:29;;;;;;;4.33;2.70;;;12.70;99.90;;;;;;6173583;23;20488;-90
2021/11/01 13:51:10;;;;;;;4.23;3.23;;;12.70;99.90;;;;;;6175506;23;20730;-91
2021/11/01 13:53:44;;;;;;;3.70;3.00;;;12.70;99.90;;;;;;6171998;23;20427;-91
2021/11/01 13:56:20;;;;;;;3.30;2.73;;;12.70;99.90;;;;;;6170505;23;20459;-91
2021/11/01 13:58:56;;;;;;;2.67;2.30;;;12.60;99.90;;;;;;6174372;23;20399;-90
2021/11/01 14:01:42;;;;;;;3.17;2.50;;;12.60;99.90;;;;;;6167919;23;20426;-91
2021/11/01 14:12:37;;;;;;;3.93;2.60;;;12.70;99.90;;;;;;6185046;23;20426;-90
2021/11/01 14:15:08;;;;;;;5.03;3.23;;;12.70;99.90;;;;;;6163489;23;20400;-92
2021/11/01 14:20:40;;;;;;;4.63;2.40;;;12.80;99.90;;;;;;5095750;27;20520;-92
2021/11/01 14:28:45;;;;;;;3.70;2.90;;;12.80;99.90;;;;;;5050359;28;20471;-91
2021/11/01 14:34:14;;;;;;;2.97;2.53;;;12.90;99.90;;;;;;5155532;27;20836;-92
2021/11/01 15:10:25;;;;;;;3.07;2.73;;;12.70;99.90;;;;;;5136990;28;20432;-91
2021/11/01 15:13:29;;;;;;;3.50;2.93;;;12.70;99.90;;;;;;5136344;27;20485;-92
2021/11/01 15:19:03;;;;;;;3.50;3.10;;;12.80;99.90;;;;;;5055674;28;20476;-80
2021/11/01 15:21:37;;;;;;;4.00;3.00;;;12.90;99.90;;;;;;5101450;28;20454;-79
2021/11/01 15:24:18;;;;;;;3.87;3.10;;;13.00;99.90;;;;;;5093845;28;20854;-87
2021/11/01 15:38:19;;;;;;;3.83;2.60;;;13.10;99.90;;;;;;5116837;28;20426;-86
2021/11/01 16:23:44;;;;;;;2.63;2.37;;;12.30;99.90;;;;;;5027646;28;20511;-90
2021/11/01 16:26:20;;;;;;;3.93;2.83;;;12.30;99.90;;;;;;5092144;28;20482;-91
2021/11/01 16:29:00;;;;;;;4.07;2.37;;;12.30;99.90;;;;;;5098347;28;20568;-92
2021/11/01 16:31:33;;;;;;;4.10;2.80;;;12.30;99.90;;;;;;5069196;28;20464;-89
2021/11/01 16:34:14;;;;;;;2.97;2.67;;;12.20;99.90;;;;;;5072000;28;20471;-90
2021/11/01 16:37:14;;;;;;;4.13;3.07;;;12.20;99.90;;;;;;5070762;28;20475;-90
2021/11/01 16:39:51;;;;;;;2.67;2.00;;;12.20;99.90;;;;;;5068828;28;20440;-89
2021/11/01 16:42:23;;;;;;;3.80;3.10;;;12.20;99.90;;;;;;5061807;28;20884;-89
2021/11/01 16:44:51;;;;;;;5.50;2.60;;;12.10;99.90;;;;;;5058789;28;20454;-89
2021/11/01 16:47:18;;;;;;;3.20;2.43;;;12.10;99.90;;;;;;5049181;28;20442;-89
2021/11/01 16:49:49;;;;;;;3.37;2.70;;;12.00;99.90;;;;;;5060536;28;20441;-90
2021/11/01 16:52:20;;;;;;;3.27;2.67;;;12.00;99.90;;;;;;5060050;28;20448;-89
2021/11/01 16:54:51;;;;;;;4.33;3.30;;;12.00;99.90;;;;;;5067413;28;20467;-90
2021/11/01 16:57:25;;;;;;;5.90;2.93;;;12.00;99.90;;;;;;5055962;28;20500;-89
2021/11/01 17:00:00;;;;;;;3.70;3.20;;;12.10;99.90;;;;;;5060336;28;20441;-90
2021/11/01 17:02:43;;;;;;;4.43;2.83;;;12.10;99.90;;;;;;5060491;28;20452;-90
2021/11/01 17:05:25;;;;;;;2.97;2.50;;;12.10;99.90;;;;;;5052842;28;20463;-90
2021/11/01 17:22:26;;;;;;;6.80;3.50;;;12.10;99.90;;;;;;5066872;28;20461;-90
2021/11/01 17:25:08;;;;;;;4.10;3.70;;;12.10;99.90;;;;;;5063742;28;20535;-90
2021/11/01 17:31:12;;;;;;;4.87;4.43;;;12.00;99.90;;;;;;5039188;28;20492;-90
2021/11/01 17:36:48;;;;;;;6.87;6.17;;;11.90;99.90;;;;;;5061351;28;20436;-89
2021/11/01 18:38:33;;;;;;;9.30;7.33;;;11.00;99.90;;;;;;5059274;28;20505;-90
2021/11/01 18:41:05;;;;;;;6.63;5.90;;;11.00;99.90;;;;;;5070368;28;20448;-89
2021/11/01 18:50:45;;;;;;;6.73;5.80;;;11.10;99.90;;;;;;5072553;28;20453;-91
2021/11/01 18:52:18;;;;;;;5.10;4.70;;;11.20;99.90;;;;;;5059260;28;21188;-89
2021/11/01 18:54:52;;;;;;;5.87;5.23;;;11.20;99.90;;;;;;5055173;28;20441;-91
2021/11/01 18:57:20;;;;;;;5.60;5.00;;;11.20;99.90;;;;;;5057501;28;20436;-90
2021/11/01 18:59:52;;;;;;;5.83;4.80;;;11.20;99.90;;;;;;5038725;28;20455;-89
2021/11/01 19:02:41;;;;;;;5.20;4.73;;;11.10;99.90;;;;;;5042752;28;20459;-89
2021/11/01 19:05:16;;;;;;;6.40;5.80;;;11.10;99.90;;;;;;5041047;28;20479;-89
2021/11/01 19:07:56;;;;;;;6.80;6.10;;;10.90;99.90;;;;;;5042364;28;20471;-88
2021/11/01 20:03:51;;;;;;;2.17;1.90;;;10.20;99.90;;;;;;5019638;28;21068;-88
2021/11/01 20:06:39;;;;;;;2.97;2.20;;;10.10;99.90;;;;;;5052792;28;20522;-87
2021/11/01 20:09:27;;;;;;;3.10;2.67;;;10.00;99.90;;;;;;5064005;28;20452;-89
2021/11/01 20:12:24;;;;;;;3.00;2.33;;;10.00;99.90;;;;;;5080821;28;20452;-89
2021/11/01 21:25:41;;;;;;;3.43;2.93;;;8.70;99.90;;;;;;5071158;28;21003;-88
2021/11/01 21:28:08;;;;;;;4.73;3.13;;;8.80;99.90;;;;;;5071087;28;20439;-88
2021/11/01 21:30:35;;;;;;;4.00;3.40;;;8.70;99.90;;;;;;5064348;28;20433;-89
2021/11/01 21:33:13;;;;;;;4.60;4.20;;;8.80;99.90;;;;;;5071853;28;20467;-89
2021/11/01 21:36:04;;;;;;;4.50;3.40;;;8.80;99.90;;;;;;5076083;28;20538;-89
2021/11/01 21:38:34;;;;;;;6.10;4.30;;;8.80;99.90;;;;;;5057124;28;20445;-90
2021/11/01 21:41:01;;;;;;;3.40;3.10;;;8.80;99.90;;;;;;5058336;28;20432;-89
2021/11/01 21:43:28;;;;;;;4.60;3.90;;;8.80;99.90;;;;;;5079468;28;20487;-89
2021/11/01 21:45:55;;;;;;;6.53;3.70;;;8.80;99.90;;;;;;5071902;28;20464;-90
2021/11/01 21:48:24;;;;;;;5.10;3.37;;;8.70;99.90;;;;;;5057385;28;20455;-89
2021/11/01 21:50:53;;;;;;;3.97;3.00;;;8.60;99.90;;;;;;5040116;28;20425;-89
2021/11/01 21:53:24;;;;;;;5.73;3.20;;;8.60;99.90;;;;;;5070443;28;20516;-89
2021/11/01 21:55:54;;;;;;;5.67;3.00;;;8.70;99.90;;;;;;5057109;28;20564;-89
2021/11/01 21:58:34;;;;;;;3.43;3.00;;;8.60;99.90;;;;;;5065461;28;20440;-89
2021/11/01 22:01:20;;;;;;;4.40;2.83;;;8.60;99.90;;;;;;5061887;28;20441;-89
2021/11/01 22:17:35;;;;;;;5.57;3.23;;;8.60;99.90;;;;;;5062745;28;20443;-89
2021/11/01 22:20:08;;;;;;;5.10;3.70;;;8.50;99.90;;;;;;5053490;28;20992;-89
2021/11/01 22:25:23;;;;;;;8.00;3.40;;;8.50;99.90;;;;;;5064753;28;20518;-89
2021/11/01 22:38:57;;;;;;;4.10;3.70;;;8.30;99.90;;;;;;5061739;28;20452;-89
2021/11/01 22:47:04;;;;;;;4.77;4.37;;;8.30;99.90;;;;;;5080141;28;20467;-89
2021/11/01 22:57:44;;;;;;;5.83;4.37;;;8.50;99.90;;;;;;5055059;28;20502;-89
2021/11/01 23:00:19;;;;;;;3.93;3.53;;;8.60;99.90;;;;;;5058072;28;20455;-89
2021/11/01 23:02:52;;;;;;;4.77;3.30;;;8.70;99.90;;;;;;5051637;28;20448;-88
2021/11/01 23:05:37;;;;;;;15.23;3.60;;;8.80;99.90;;;;;;5064300;28;20480;-89
2021/11/01 23:32:53;;;;;;;4.50;4.10;;;9.30;99.90;;;;;;5058726;28;20454;-89
2021/11/01 23:35:21;;;;;;;5.27;4.50;;;9.30;99.90;;;;;;5055759;28;20464;-90
2021/11/01 23:37:47;;;;;;;6.73;5.90;;;9.30;99.90;;;;;;5055922;28;20823;-90
2021/11/01 23:40:14;;;;;;;6.20;5.60;;;9.30;99.90;;;;;;5059083;28;20441;-89
2021/11/01 23:42:41;;;;;;;7.23;6.57;;;9.30;99.90;;;;;;5055813;28;20987;-89
2021/11/01 23:45:08;;;;;;;6.67;5.83;;;9.20;99.90;;;;;;5052254;28;20492;-90